Aérodrome :
LOGIN :

S'inscrire | Disclaimer

   EN    FR    IT 

 










Légende :    VFR   VFR Marginal   IFR   IFR Intensif   IFR Très Intensif
Visi : 
Plafond : 
>= 8 km
>= 3000ft
5 à 8 km
1000 à 3000 ft
1500m à 5 km
500 à 1000 ft
800 à 1500m
200 à 500 ft
< 800m
< 200 ft
Symboles :   Orages  Brouillard  Fortes neiges  Fortes précipitations  Vent > 20 kt
SIGMETs :   Divers  Orages  Givrage  Turbulence  Onde Orograph.  Cendres Volcan.







- Altitude de l'aérodrome : 375 ft
- Code IATA : MST


EHBK - Maastricht Aachen

DERNIER METAR :
  • 270725Z AUTO 02008KT 350V050 9999 BKN012 OVC015 16/13 Q1028 BECMG SCT018

METARs EXPIRÉS :
  • 270655Z AUTO 05009KT 9999 SCT012 16/12 Q1028 NOSIG
  • 270625Z AUTO 04009KT 010V080 9999 BKN009 OVC011 15/12 Q1028 BECMG SCT018
  • 270555Z AUTO 04011KT 360V070 9999 OVC010 15/12 Q1027 BECMG SCT018
  • 270525Z AUTO 04011KT 9999 BKN009 OVC010 15/12 Q1027 TEMPO BKN012
  • 270455Z AUTO 05012KT 010V070 9000 OVC008 15/13 Q1027 TEMPO 7000 BKN012

TAF TAF EHBK
Valide du 27 à 06h jusqu'au 28 à 12h UTC


270502Z 2706/2812 04011KT 9999 BKN009
BECMG 2706/2709 SCT018
Pas de NOTAMs connus pour ce terrain.



MET'MAP, la Météo Aéronautique d'un coup d'oeil ! - Copyright ORBIFLY Décembre 2007 - Disclaimer

ORBIFLY MET'MAP TEAM :

Programmation & Développement : Alexandra Zaïnal
Conception & Développement : Baudouin d'Aumeries
Co-Programmation & Développement : Marc-Olivier Méhu
Soutien technique & logistique : Manuel Goepfert

Contact : metmap@orbifly.com




SOURCES & CREDITS :

   NOAA